ENGLEBRIGHT (USACE) (ENG)

Elevation: 551' · YUBA R basin · Operator: US Army Corps of Engineers

Provisional data, subject to change.
Query executed Friday at 20:56:54   clock

Select a sensor type for a plot of data.
Note: Reservoir Flows are daily averages.

Earlier

Date RES ELE    STORAGE    RES CHG    OUTFLOW    INFLOW    PPT INC   
 FEET   AF   AF   CFS   CFS   INCHES  
01/28/2015 520.73 64993 85 -- 600 0.00
01/29/2015 521.44 65542 549 -- 835 0.00
01/30/2015 520.65 64931 -611 -- 250 0.00
01/31/2015 520.58 64878 -53 -- 530 0.00
02/01/2015 519.52 64066 -812 -- 148 0.00
02/02/2015 520.72 64985 919 -- 1020 0.00
02/03/2015 520.65 64931 -54 -- 530 0.00
02/04/2015 519.60 64127 -804 -- 151 0.00
02/05/2015 518.46 63263 -864 -- 120 0.00
02/06/2015 517.23 62340 -923 -- 197 1.14
02/07/2015 518.08 62977 637 -- 1138 0.09
02/08/2015 518.39 63210 233 -- 913 0.86
02/09/2015 524.53 67971 4761 -- 3444 0.22
02/10/2015 523.36 67043 -928 -- 1906 0.00
02/11/2015 520.36 64708 -2335 -- 1234 0.00
02/12/2015 519.27 63876 -832 -- 843 0.00
02/13/2015 519.61 64135 259 -- 872 0.00
02/14/2015 519.12 63762 -373 -- 552 0.00
02/15/2015 518.37 63195 -567 -- 453 0.00
02/16/2015 517.49 62534 -661 -- 407 0.00
02/17/2015 517.33 62415 -119 -- 681 0.00
02/18/2015 518.37 63195 780 -- 1134 0.00
02/19/2015 519.13 63770 575 -- 1033 0.00
02/20/2015 521.66 65712 1942 -- 979 0.00
02/21/2015 521.78 65805 93 -- -- --
02/22/2015 521.85 65860 55 -- 776 0.00
02/23/2015 522.51 66375 515 -- 1009 0.00
02/24/2015 521.89 65891 -484 -- 505 0.00
02/25/2015 521.25 65394 -- -- -251 0.00
02/26/2015 521.14 65309 -85 -- -- --
02/27/2015 -- -- -- -- -- --

Later | Latest

Warning! This data is preliminary and subject to revision.

Show ENG Map | Plot ENG Data | 1 Month ENG Data | Real-Time ENG Data | ENG Info